Estación Meteorológica Peña el Pijo (Robertgarden) [ 12/17/17 01:39:48 CET ]

Fecha Hora Presion(HPa) Temp (°C) Humedad % Rocio (°C) Viento ( m/s) Direccion Lluvia 1Hora(mm) Lluvia 24H(mm) LLuvia Total(mm)
2017-Dec-09 01:01:58 1013.900 9.2 68 3.6         0.00
2017-Dec-09 02:01:46 1013.300 9.1 73 4.5 1.1 NW     0.00
2017-Dec-09 03:01:45 1013.100 8.4 74 4.0         0.00
2017-Dec-09 04:01:44 1013.400 8.8 75 4.6         0.00
2017-Dec-09 05:01:43 1012.900 8.0 76 4.0         0.00
2017-Dec-09 06:04:08 1012.500 8.6 77 4.8         0.00
2017-Dec-09 07:02:04 1012.400 8.5 79 5.1         0.00
2017-Dec-09 08:01:49 1012.900 9.2 79 5.7         0.00
2017-Dec-09 09:01:53 1013.000 9.2 79 5.7         0.00
2017-Dec-09 10:01:52 1013.300 9.3 79 5.8         0.00
2017-Dec-09 11:01:52 1014.000 9.4 79 5.9         0.00
2017-Dec-09 12:01:44 1013.500 9.4 78 5.7         0.00
2017-Dec-09 13:01:44 1013.200 11.9 74 7.4         0.00
2017-Dec-09 14:02:03 1013.000 12.9 65 6.4 0.1 WNW     0.00
2017-Dec-09 15:01:50 1012.500 12.7 65 6.3         0.00
2017-Dec-09 16:01:44 1012.600 11.9 66 5.7         0.00
2017-Dec-09 17:01:36 1012.600 10.9 69 5.5         0.00
2017-Dec-09 18:01:54 1012.900 9.9 72 5.1         0.00
2017-Dec-09 19:01:48 1013.300 9.0 75 4.8         0.00
2017-Dec-09 20:01:49 1013.100 9.3 77 5.4         0.00
2017-Dec-09 21:01:47 1013.100 9.2 77 5.3         0.00
2017-Dec-09 22:01:50 1013.200 9.2 79 5.7         0.00
2017-Dec-09 23:01:49 1012.900 9.3 80 6.0         0.00

Temperatura Máxima:12°    Temperatura Mínima:
Presión Máxima:1014.000 Hpa    Presión Mínima:1012.400 Hpa


Volver